createdAt,value
2018-07-03T00:00:30.646Z,1.70
2018-07-03T00:01:30.617Z,1.50
2018-07-03T00:02:30.574Z,1.50
2018-07-03T00:03:30.544Z,1.80
2018-07-03T00:04:30.512Z,1.80
2018-07-03T00:05:30.503Z,1.60
2018-07-03T00:06:30.477Z,1.50
2018-07-03T00:07:30.413Z,1.60
2018-07-03T00:08:30.383Z,1.60
2018-07-03T00:09:30.348Z,1.80
2018-07-03T00:10:30.324Z,1.60
2018-07-03T00:11:30.285Z,1.60
2018-07-03T00:12:30.253Z,1.80
2018-07-03T00:13:30.234Z,1.70
2018-07-03T00:14:30.185Z,1.60
2018-07-03T00:15:30.154Z,1.70
2018-07-03T00:16:30.124Z,1.70
2018-07-03T00:17:30.108Z,1.60
2018-07-03T00:18:30.119Z,1.80
2018-07-03T00:19:30.032Z,1.70
2018-07-03T00:20:29.995Z,1.70
2018-07-03T00:21:29.964Z,1.80
2018-07-03T00:22:29.940Z,1.50
2018-07-03T00:23:29.903Z,1.80
2018-07-03T00:24:29.876Z,1.50
2018-07-03T00:25:29.831Z,1.90
2018-07-03T00:26:29.800Z,1.90
2018-07-03T00:27:29.761Z,1.80
2018-07-03T00:28:29.730Z,1.90
2018-07-03T00:29:29.712Z,1.70
2018-07-03T00:30:29.670Z,1.70
2018-07-03T00:31:29.667Z,2.10
2018-07-03T00:32:29.608Z,1.70
2018-07-03T00:33:29.575Z,1.80
2018-07-03T00:34:29.542Z,2.10
2018-07-03T00:35:29.500Z,1.60
2018-07-03T00:36:29.475Z,1.60
2018-07-03T00:37:29.443Z,1.60
2018-07-03T00:38:29.401Z,1.60
2018-07-03T00:39:29.367Z,1.80
2018-07-03T00:40:29.335Z,1.80
2018-07-03T00:41:29.315Z,1.70
2018-07-03T00:42:29.272Z,1.90
2018-07-03T00:43:29.247Z,1.90
2018-07-03T00:44:29.212Z,1.70
2018-07-03T00:45:29.184Z,1.70
2018-07-03T00:46:29.142Z,1.60
2018-07-03T00:47:29.101Z,1.50
2018-07-03T00:48:29.075Z,1.70
2018-07-03T00:49:29.040Z,1.80
2018-07-03T00:50:29.023Z,1.90
2018-07-03T00:51:28.977Z,1.70
2018-07-03T00:52:28.936Z,1.80
2018-07-03T00:53:28.907Z,1.70
2018-07-03T00:54:28.907Z,1.80
2018-07-03T00:55:28.862Z,1.90
2018-07-03T00:56:28.812Z,2.00
2018-07-03T00:57:28.785Z,1.80
2018-07-03T00:58:28.740Z,2.30
2018-07-03T00:59:28.721Z,1.70
2018-07-03T01:00:28.683Z,1.60
2018-07-03T01:01:28.649Z,1.70
2018-07-03T01:02:28.608Z,1.70
2018-07-03T01:03:28.581Z,1.60
2018-07-03T01:04:28.579Z,1.60
2018-07-03T01:05:28.533Z,1.80
2018-07-03T01:06:28.473Z,1.90
2018-07-03T01:07:28.469Z,1.80
2018-07-03T01:08:28.438Z,1.70
2018-07-03T01:09:28.380Z,1.80
2018-07-03T01:10:28.368Z,2.00
2018-07-03T01:11:28.303Z,1.80
2018-07-03T01:12:28.269Z,1.80
2018-07-03T01:13:28.243Z,1.60
2018-07-03T01:14:28.212Z,1.70
2018-07-03T01:15:28.222Z,1.60
2018-07-03T01:16:28.146Z,1.60
2018-07-03T01:17:28.111Z,1.60
2018-07-03T01:18:28.072Z,1.80
2018-07-03T01:19:28.040Z,1.80
2018-07-03T01:20:28.015Z,1.70
2018-07-03T01:21:27.973Z,1.70
2018-07-03T01:22:27.950Z,1.70
2018-07-03T01:23:27.928Z,1.90
2018-07-03T01:24:27.879Z,1.80
2018-07-03T01:25:27.838Z,1.60
2018-07-03T01:26:27.845Z,1.90
2018-07-03T01:27:27.783Z,1.70
2018-07-03T01:28:27.744Z,1.60
2018-07-03T01:29:27.737Z,2.20
2018-07-03T01:30:27.678Z,1.80
2018-07-03T01:31:27.642Z,1.70
2018-07-03T01:32:27.609Z,1.80
2018-07-03T01:33:27.574Z,2.00
2018-07-03T01:34:27.537Z,1.80
2018-07-03T01:35:27.522Z,1.70
2018-07-03T01:36:27.478Z,1.80
2018-07-03T01:37:27.453Z,1.70
2018-07-03T01:38:27.403Z,1.70
2018-07-03T01:39:27.392Z,1.80
2018-07-03T01:40:27.341Z,1.60
2018-07-03T01:41:27.307Z,1.90
2018-07-03T01:42:27.270Z,1.70
2018-07-03T01:43:27.269Z,1.80
2018-07-03T01:44:27.200Z,1.80
2018-07-03T01:45:27.171Z,2.00
2018-07-03T01:46:27.143Z,1.70
2018-07-03T01:47:27.106Z,1.70
2018-07-03T01:48:27.076Z,1.80
2018-07-03T01:49:27.063Z,1.30
2018-07-03T01:50:27.000Z,1.50
2018-07-03T01:51:26.965Z,1.50
2018-07-03T01:52:26.934Z,2.00
2018-07-03T01:53:26.903Z,1.50
2018-07-03T01:54:26.870Z,1.90
2018-07-03T01:55:26.852Z,1.60
2018-07-03T01:56:26.797Z,1.80
2018-07-03T01:57:26.776Z,1.60
2018-07-03T01:58:26.735Z,1.80
2018-07-03T01:59:26.703Z,1.80
2018-07-03T02:00:26.676Z,1.70
2018-07-03T02:01:26.653Z,1.80
2018-07-03T02:02:26.596Z,1.90
2018-07-03T02:03:26.577Z,1.80
2018-07-03T02:04:26.532Z,1.90
2018-07-03T02:05:26.497Z,1.90
2018-07-03T02:06:26.471Z,1.80
2018-07-03T02:07:26.445Z,1.60
2018-07-03T02:08:26.407Z,1.90
2018-07-03T02:09:26.374Z,1.70
2018-07-03T02:10:26.328Z,1.90
2018-07-03T02:11:26.300Z,1.70
2018-07-03T02:12:26.264Z,1.80
2018-07-03T02:13:26.232Z,1.70
2018-07-03T02:14:26.213Z,1.60
2018-07-03T02:15:26.161Z,1.70
2018-07-03T02:16:26.141Z,1.40
2018-07-03T02:17:26.119Z,1.60
2018-07-03T02:18:26.060Z,1.70
2018-07-03T02:19:26.034Z,1.60
2018-07-03T02:20:26.004Z,1.60
2018-07-03T02:21:25.978Z,1.60
2018-07-03T02:22:25.923Z,1.60
2018-07-03T02:23:25.886Z,1.50
2018-07-03T02:24:25.885Z,1.50
2018-07-03T02:25:25.822Z,1.50
2018-07-03T02:26:25.796Z,1.50
2018-07-03T02:27:25.759Z,1.60
2018-07-03T02:28:25.719Z,1.40
2018-07-03T02:29:25.689Z,1.30
2018-07-03T02:30:25.653Z,1.50
2018-07-03T02:31:25.621Z,1.40
2018-07-03T02:32:25.589Z,1.50
2018-07-03T02:33:25.583Z,1.60
2018-07-03T02:34:25.519Z,1.70
2018-07-03T02:35:25.486Z,2.10
2018-07-03T02:36:25.447Z,1.40
2018-07-03T02:37:25.418Z,1.50
2018-07-03T02:38:25.406Z,1.80
2018-07-03T02:39:25.352Z,1.60
2018-07-03T02:40:25.331Z,1.70
2018-07-03T02:41:25.325Z,1.50
2018-07-03T02:42:25.272Z,1.60
2018-07-03T02:43:25.214Z,1.70
2018-07-03T02:44:25.189Z,1.40
2018-07-03T02:45:25.149Z,1.50
2018-07-03T02:46:25.122Z,1.70
2018-07-03T02:47:25.073Z,1.70
2018-07-03T02:48:25.063Z,2.10
2018-07-03T02:49:25.016Z,1.50
2018-07-03T02:50:24.978Z,1.50
2018-07-03T02:51:24.979Z,1.50
2018-07-03T02:52:24.918Z,1.60
2018-07-03T02:53:24.881Z,1.40
2018-07-03T02:54:24.841Z,1.50
2018-07-03T02:55:24.809Z,1.60
2018-07-03T02:56:24.804Z,1.60
2018-07-03T02:57:24.738Z,1.50
2018-07-03T02:58:24.758Z,1.60
2018-07-03T02:59:24.679Z,1.50
2018-07-03T03:00:24.645Z,1.50
2018-07-03T03:01:24.621Z,1.60
2018-07-03T03:02:24.575Z,1.30
2018-07-03T03:03:24.585Z,1.50
2018-07-03T03:04:24.533Z,1.40
2018-07-03T03:05:24.521Z,1.50
2018-07-03T03:06:24.481Z,1.60
2018-07-03T03:07:24.421Z,1.70
2018-07-03T03:08:24.363Z,1.80
2018-07-03T03:09:24.346Z,1.50
2018-07-03T03:10:24.300Z,1.60
2018-07-03T03:11:24.269Z,1.70
2018-07-03T03:12:24.231Z,1.90
2018-07-03T03:13:24.200Z,1.70
2018-07-03T03:14:24.194Z,1.80
2018-07-03T03:15:24.125Z,1.60
2018-07-03T03:16:24.102Z,1.60
2018-07-03T03:17:24.059Z,1.50
2018-07-03T03:18:24.028Z,1.60
2018-07-03T03:19:23.991Z,1.40
2018-07-03T03:20:23.955Z,1.60
2018-07-03T03:21:23.926Z,1.60
2018-07-03T03:22:23.897Z,1.60
2018-07-03T03:23:23.863Z,1.60
2018-07-03T03:24:23.829Z,1.70
2018-07-03T03:25:23.787Z,1.70
2018-07-03T03:26:23.749Z,1.60
2018-07-03T03:27:23.735Z,1.60
2018-07-03T03:28:23.684Z,1.40
2018-07-03T03:29:23.651Z,1.60
2018-07-03T03:30:23.623Z,1.40
2018-07-03T03:31:23.588Z,1.70
2018-07-03T03:33:23.511Z,1.40
2018-07-03T03:34:23.487Z,1.40
2018-07-03T03:35:23.467Z,1.40
2018-07-03T03:36:23.418Z,1.80
2018-07-03T03:37:23.377Z,1.70
2018-07-03T03:38:23.338Z,1.60
2018-07-03T03:39:23.307Z,1.60
2018-07-03T03:40:23.297Z,1.70
2018-07-03T03:41:23.237Z,1.70
2018-07-03T03:42:23.218Z,1.70
2018-07-03T03:43:23.170Z,1.50
2018-07-03T03:44:23.135Z,1.60
2018-07-03T03:45:23.115Z,1.30
2018-07-03T03:46:23.071Z,1.60
2018-07-03T03:47:23.029Z,1.40
2018-07-03T03:48:23.017Z,1.30
2018-07-03T03:49:22.978Z,1.30
2018-07-03T03:50:22.954Z,1.30
2018-07-03T03:51:22.917Z,1.20
2018-07-03T04:08:49.037Z,1.10
2018-07-03T04:09:48.971Z,1.60
2018-07-03T04:10:48.936Z,1.70
2018-07-03T04:11:48.897Z,1.70
2018-07-03T04:12:48.853Z,1.50
2018-07-03T04:13:48.817Z,1.40
2018-07-03T04:14:48.819Z,1.30
2018-07-03T04:15:48.740Z,1.50
2018-07-03T04:16:48.710Z,1.40
2018-07-03T04:17:48.671Z,1.30
2018-07-03T04:18:48.646Z,1.70
2018-07-03T04:19:48.604Z,1.40
2018-07-03T04:20:48.584Z,1.50
2018-07-03T04:21:48.530Z,1.30
2018-07-03T04:22:48.497Z,1.30
2018-07-03T04:23:48.453Z,1.50
2018-07-03T04:24:48.457Z,1.30
2018-07-03T04:25:48.393Z,1.50
2018-07-03T04:26:48.353Z,1.20
2018-07-03T04:27:48.321Z,1.60
2018-07-03T04:28:48.288Z,1.40
2018-07-03T04:29:48.305Z,1.40
2018-07-03T04:30:48.218Z,1.40
2018-07-03T04:31:48.264Z,1.50
2018-07-03T04:32:48.153Z,1.50
2018-07-03T04:33:48.114Z,1.50
2018-07-03T04:34:48.086Z,1.60
2018-07-03T04:35:48.045Z,1.60
2018-07-03T04:36:48.014Z,1.70
2018-07-03T04:37:47.983Z,1.70
2018-07-03T04:38:47.953Z,1.50
2018-07-03T04:39:47.934Z,1.50
2018-07-03T04:40:47.874Z,1.60
2018-07-03T04:41:47.842Z,1.50
2018-07-03T04:42:47.816Z,1.70
2018-07-03T04:43:47.780Z,1.40
2018-07-03T04:44:47.739Z,1.50
2018-07-03T04:45:47.725Z,1.40
2018-07-03T04:46:47.704Z,1.30
2018-07-03T04:47:47.637Z,1.50
2018-07-03T04:48:47.628Z,1.30
2018-07-03T04:49:47.574Z,1.60
2018-07-03T04:50:47.854Z,1.50
2018-07-03T04:51:48.054Z,1.50
2018-07-03T04:53:47.726Z,2.20
2018-07-03T04:54:47.627Z,1.80
2018-07-03T04:55:47.465Z,2.00
2018-07-03T04:56:47.344Z,1.70
2018-07-03T04:57:47.308Z,1.80
2018-07-03T04:58:47.330Z,1.60
2018-07-03T04:59:47.244Z,1.40
2018-07-03T05:00:47.232Z,1.50
2018-07-03T05:01:47.178Z,1.40
2018-07-03T05:02:47.145Z,1.30
2018-07-03T05:03:47.121Z,1.40
2018-07-03T05:04:47.080Z,1.50
2018-07-03T05:05:47.045Z,1.40
2018-07-03T05:06:47.015Z,1.40
2018-07-03T05:07:46.977Z,1.20
2018-07-03T05:08:46.959Z,1.50
2018-07-03T05:09:46.915Z,1.30
2018-07-03T05:10:46.888Z,1.90
2018-07-03T05:11:46.861Z,1.50
2018-07-03T05:12:46.820Z,1.90
2018-07-03T05:13:46.791Z,1.80
2018-07-03T05:14:46.790Z,1.60
2018-07-03T05:15:46.785Z,1.90
2018-07-03T05:16:46.683Z,1.70
2018-07-03T05:17:46.655Z,1.80
2018-07-03T05:18:46.624Z,1.50
2018-07-03T05:19:46.612Z,1.70
2018-07-03T05:20:46.598Z,1.50
2018-07-03T05:21:46.525Z,1.30
2018-07-03T05:22:46.501Z,1.30
2018-07-03T05:23:46.465Z,1.50
2018-07-03T05:24:46.424Z,1.50
2018-07-03T05:25:46.526Z,1.70
2018-07-03T05:26:46.362Z,1.40
2018-07-03T05:27:46.358Z,1.90
2018-07-03T05:28:46.302Z,1.70
2018-07-03T05:29:46.274Z,1.60
2018-07-03T05:30:46.235Z,1.50
2018-07-03T05:31:46.257Z,1.30
2018-07-03T05:32:46.190Z,1.40
2018-07-03T05:33:46.138Z,1.50
2018-07-03T05:34:46.106Z,1.90
2018-07-03T05:35:46.199Z,1.40
2018-07-03T05:36:46.089Z,1.70
2018-07-03T05:37:46.008Z,1.80
2018-07-03T05:38:46.017Z,1.40
2018-07-03T05:39:45.946Z,1.40
2018-07-03T05:40:45.926Z,1.60
2018-07-03T05:41:45.883Z,1.30
2018-07-03T05:42:45.879Z,1.30
2018-07-03T05:43:45.837Z,1.30
2018-07-03T05:44:45.785Z,1.40
2018-07-03T05:45:45.761Z,1.60
2018-07-03T05:46:45.729Z,1.40
2018-07-03T05:47:45.713Z,1.60
2018-07-03T05:48:45.676Z,1.20
2018-07-03T05:49:45.631Z,1.60
2018-07-03T05:50:45.596Z,1.40
2018-07-03T05:51:45.562Z,1.30
2018-07-03T05:52:45.537Z,1.50
2018-07-03T05:53:45.507Z,1.80
2018-07-03T05:54:45.473Z,1.50
2018-07-03T05:55:45.442Z,1.60
2018-07-03T05:56:45.457Z,1.40
2018-07-03T05:57:45.381Z,1.50
2018-07-03T05:58:45.347Z,1.40
2018-07-03T05:59:45.345Z,1.60
2018-07-03T06:00:45.288Z,1.50
2018-07-03T06:01:45.254Z,1.60
2018-07-03T06:02:45.228Z,1.50
2018-07-03T06:03:45.246Z,1.50
2018-07-03T06:04:45.177Z,1.70
2018-07-03T06:05:45.141Z,1.60
2018-07-03T06:06:45.134Z,1.50
2018-07-03T06:07:45.070Z,1.60
2018-07-03T06:08:45.177Z,1.60
2018-07-03T06:09:45.002Z,1.70
2018-07-03T06:10:44.977Z,1.60
2018-07-03T06:11:44.937Z,1.70
2018-07-03T06:12:44.915Z,1.80
2018-07-03T06:13:44.887Z,1.80
2018-07-03T06:14:44.863Z,1.70
2018-07-03T06:15:44.829Z,1.70
2018-07-03T06:16:44.783Z,1.70
2018-07-03T06:17:44.760Z,1.50
2018-07-03T06:18:44.741Z,1.80
2018-07-03T06:19:44.698Z,1.60
2018-07-03T06:20:44.668Z,1.50
2018-07-03T06:21:44.642Z,1.60
2018-07-03T06:22:44.619Z,1.50
2018-07-03T06:23:44.575Z,1.50
2018-07-03T06:24:44.557Z,1.50
2018-07-03T06:25:44.547Z,1.70
2018-07-03T06:26:44.519Z,1.70
2018-07-03T06:27:44.451Z,1.40
2018-07-03T06:28:44.453Z,1.50
2018-07-03T06:29:44.416Z,1.50
2018-07-03T06:30:44.377Z,1.30
2018-07-03T06:31:44.332Z,1.40
2018-07-03T06:32:44.309Z,1.70
2018-07-03T06:33:44.276Z,1.80
2018-07-03T06:34:44.235Z,1.40
2018-07-03T06:35:44.218Z,1.40
2018-07-03T06:36:44.179Z,1.50
2018-07-03T06:37:44.150Z,1.20
2018-07-03T06:38:44.124Z,1.10
2018-07-03T06:39:44.087Z,1.40
2018-07-03T06:40:44.059Z,1.60
2018-07-03T06:41:44.027Z,1.40
2018-07-03T06:42:44.010Z,1.30
2018-07-03T06:43:43.970Z,1.20
2018-07-03T06:44:43.971Z,1.30
2018-07-03T06:45:43.911Z,1.40
2018-07-03T06:46:43.911Z,1.40
2018-07-03T06:47:43.849Z,1.40
2018-07-03T06:48:43.841Z,1.40
2018-07-03T06:49:43.787Z,1.30
2018-07-03T06:50:43.793Z,1.20
2018-07-03T06:51:43.787Z,1.30
2018-07-03T06:52:43.767Z,1.30
2018-07-03T06:53:43.665Z,1.20
2018-07-03T06:54:43.648Z,1.60
2018-07-03T06:55:43.612Z,1.20
2018-07-03T06:56:43.583Z,1.50
2018-07-03T06:57:43.565Z,1.20
2018-07-03T06:58:43.528Z,1.50
2018-07-03T06:59:43.503Z,1.40
2018-07-03T07:00:43.468Z,1.30
2018-07-03T07:01:43.431Z,1.40
2018-07-03T07:02:43.404Z,1.30
2018-07-03T07:03:43.388Z,1.30
2018-07-03T07:04:43.359Z,1.30
2018-07-03T07:05:43.320Z,1.60
2018-07-03T07:06:43.286Z,1.40
2018-07-03T07:07:43.255Z,1.20
2018-07-03T07:08:43.341Z,1.40
2018-07-03T07:09:43.291Z,1.20
2018-07-03T07:10:43.183Z,1.20
2018-07-03T07:11:43.143Z,1.20
2018-07-03T07:12:43.177Z,1.30
2018-07-03T07:13:43.078Z,1.30
2018-07-03T07:14:43.050Z,1.30
2018-07-03T07:15:43.023Z,1.40
2018-07-03T07:16:43.004Z,1.50
2018-07-03T07:17:42.993Z,1.20
2018-07-03T07:18:42.940Z,1.40
2018-07-03T07:19:42.907Z,1.50
2018-07-03T07:20:42.878Z,1.30
2018-07-03T07:21:42.904Z,1.20
2018-07-03T07:22:42.822Z,1.40
2018-07-03T07:23:42.793Z,1.40
2018-07-03T07:24:42.760Z,1.50
2018-07-03T07:25:42.728Z,1.20
2018-07-03T07:26:42.828Z,1.50
2018-07-03T07:27:42.692Z,1.30
2018-07-03T07:28:42.659Z,1.30
2018-07-03T07:29:42.639Z,1.40
2018-07-03T07:30:42.606Z,1.20
2018-07-03T07:31:42.559Z,1.30
2018-07-03T07:32:42.528Z,1.40
2018-07-03T07:33:42.531Z,1.50
2018-07-03T07:34:42.473Z,1.30
2018-07-03T07:35:42.442Z,1.10
2018-07-03T07:36:42.414Z,1.40
2018-07-03T07:37:42.398Z,1.30
2018-07-03T07:38:42.355Z,1.30
2018-07-03T07:39:42.386Z,1.20
2018-07-03T07:40:42.318Z,1.30
2018-07-03T07:41:42.291Z,1.20
2018-07-03T07:42:42.281Z,1.10
2018-07-03T07:43:42.233Z,1.20
2018-07-03T07:44:42.191Z,1.30
2018-07-03T07:45:42.152Z,1.30
2018-07-03T07:46:42.127Z,1.20
2018-07-03T07:47:42.127Z,1.30
2018-07-03T07:48:42.081Z,1.50
2018-07-03T07:49:42.066Z,1.30
2018-07-03T07:50:42.015Z,1.20
2018-07-03T07:51:41.988Z,1.30
2018-07-03T07:52:41.984Z,1.30
2018-07-03T07:53:41.931Z,1.10
2018-07-03T07:54:41.900Z,1.30
2018-07-03T07:55:41.868Z,1.40
2018-07-03T07:56:41.842Z,1.20
2018-07-03T07:57:41.817Z,1.20
2018-07-03T07:58:41.781Z,1.20
2018-07-03T07:59:41.780Z,1.20
2018-07-03T08:00:41.747Z,1.30
2018-07-03T08:01:41.698Z,1.20
2018-07-03T08:02:41.676Z,1.30
2018-07-03T08:03:41.640Z,1.30
2018-07-03T08:04:41.609Z,1.30
2018-07-03T08:05:41.578Z,1.20
2018-07-03T08:06:41.603Z,1.20
2018-07-03T08:07:41.574Z,1.30
2018-07-03T08:08:41.504Z,1.20
2018-07-03T08:09:41.480Z,1.20
2018-07-03T08:10:41.440Z,1.20
2018-07-03T08:11:41.431Z,1.10
2018-07-03T08:12:41.385Z,1.20
2018-07-03T08:13:41.380Z,1.10
2018-07-03T08:14:41.396Z,1.20
2018-07-03T08:15:41.329Z,1.10
2018-07-03T08:16:41.268Z,1.30
2018-07-03T08:17:41.244Z,1.10
2018-07-03T08:18:41.209Z,1.40
2018-07-03T08:19:41.186Z,1.40
2018-07-03T08:20:41.159Z,1.20
2018-07-03T08:21:41.137Z,1.10
2018-07-03T08:22:41.109Z,1.30
2018-07-03T08:23:41.073Z,1.20
2018-07-03T08:24:41.044Z,1.30
2018-07-03T08:25:41.008Z,1.20
2018-07-03T08:26:41.038Z,1.10
2018-07-03T08:27:40.957Z,1.20
2018-07-03T08:28:40.940Z,1.50
2018-07-03T08:29:40.907Z,1.10
2018-07-03T08:30:40.869Z,1.10
2018-07-03T08:31:40.848Z,1.20
2018-07-03T08:32:40.830Z,1.30
2018-07-03T08:33:40.792Z,1.10
2018-07-03T08:34:40.764Z,1.40
2018-07-03T08:35:40.734Z,1.30
2018-07-03T08:36:40.714Z,1.20
2018-07-03T08:37:40.668Z,1.40
2018-07-03T08:38:40.654Z,1.20
2018-07-03T08:39:40.617Z,1.20
2018-07-03T08:40:40.590Z,1.20
2018-07-03T08:41:40.562Z,1.30
2018-07-03T08:42:40.532Z,1.20
2018-07-03T08:43:40.502Z,1.30
2018-07-03T08:44:40.478Z,1.50
2018-07-03T08:45:40.455Z,1.30
2018-07-03T08:46:40.423Z,1.10
2018-07-03T08:47:40.394Z,1.20
2018-07-03T08:48:40.363Z,1.30
2018-07-03T08:49:40.340Z,1.20
2018-07-03T08:50:40.307Z,1.20
2018-07-03T08:51:40.349Z,1.20
2018-07-03T08:52:40.255Z,1.10
2018-07-03T08:53:40.237Z,1.20
2018-07-03T08:54:40.203Z,1.30
2018-07-03T08:55:40.371Z,1.10
2018-07-03T08:56:40.156Z,1.20
2018-07-03T08:57:40.108Z,1.10
2018-07-03T08:58:40.094Z,1.10
2018-07-03T08:59:40.059Z,1.30
2018-07-03T09:00:40.038Z,1.20
2018-07-03T09:01:40.074Z,1.10
2018-07-03T09:02:39.970Z,1.20
2018-07-03T09:03:40.009Z,1.20
2018-07-03T09:04:40.032Z,1.10
2018-07-03T09:05:39.898Z,1.20
2018-07-03T09:06:40.018Z,1.20
2018-07-03T09:07:39.835Z,1.20
2018-07-03T09:08:39.805Z,1.20
2018-07-03T09:09:39.803Z,1.30
2018-07-03T09:10:39.746Z,1.30
2018-07-03T09:11:39.723Z,1.20
2018-07-03T09:12:39.706Z,1.10
2018-07-03T09:13:39.695Z,1.20
2018-07-03T09:14:39.638Z,1.20
2018-07-03T09:15:39.612Z,1.20
2018-07-03T09:16:39.597Z,1.10
2018-07-03T09:17:39.561Z,1.20
2018-07-03T09:18:39.538Z,1.20
2018-07-03T09:19:39.560Z,1.10
2018-07-03T09:20:39.482Z,1.20
2018-07-03T09:21:39.442Z,1.30
2018-07-03T09:22:39.414Z,1.20
2018-07-03T09:23:39.391Z,1.20
2018-07-03T09:24:39.368Z,1.10
2018-07-03T09:25:39.343Z,1.20
2018-07-03T09:26:39.311Z,1.20
2018-07-03T09:27:39.285Z,1.20
2018-07-03T09:28:39.253Z,1.20
2018-07-03T09:29:39.226Z,1.20
2018-07-03T09:30:39.211Z,1.40
2018-07-03T09:31:39.170Z,1.20
2018-07-03T09:32:39.152Z,1.20
2018-07-03T09:33:39.113Z,1.10
2018-07-03T09:34:39.084Z,1.00
2018-07-03T09:35:39.069Z,1.10
2018-07-03T09:36:39.045Z,1.20
2018-07-03T09:37:39.019Z,1.20
2018-07-03T09:38:38.986Z,1.20
2018-07-03T09:39:38.977Z,1.20
2018-07-03T09:40:38.921Z,1.30
2018-07-03T09:41:38.891Z,1.10
2018-07-03T09:42:38.942Z,1.20
2018-07-03T09:43:38.861Z,1.20
2018-07-03T09:44:38.813Z,1.20
2018-07-03T09:45:38.786Z,1.20
2018-07-03T09:46:38.754Z,1.30
2018-07-03T09:47:38.726Z,1.20
2018-07-03T09:48:38.703Z,1.10
2018-07-03T09:49:38.736Z,1.20
2018-07-03T09:50:38.666Z,1.30
2018-07-03T09:51:38.625Z,1.40
2018-07-03T09:52:38.599Z,1.10
2018-07-03T09:53:38.559Z,1.10
2018-07-03T09:54:38.581Z,1.10
2018-07-03T09:55:38.526Z,1.20
2018-07-03T09:56:38.493Z,1.10
2018-07-03T09:57:38.511Z,1.20
2018-07-03T09:58:38.431Z,1.30
2018-07-03T09:59:38.412Z,1.10
2018-07-03T10:00:38.398Z,1.20
2018-07-03T10:01:38.380Z,1.10
2018-07-03T10:02:38.321Z,1.00
2018-07-03T10:03:38.292Z,1.20
2018-07-03T10:04:38.270Z,1.20
2018-07-03T10:05:38.391Z,1.20
2018-07-03T10:06:38.207Z,1.40
2018-07-03T10:07:38.186Z,1.10
2018-07-03T10:21:44.548Z,1.70
2018-07-03T10:22:44.513Z,1.30
2018-07-03T10:23:44.462Z,1.20
2018-07-03T10:24:44.433Z,1.10
2018-07-03T10:25:44.416Z,1.30
2018-07-03T10:26:44.376Z,1.30
2018-07-03T10:27:44.361Z,1.20
2018-07-03T10:28:44.304Z,1.30
2018-07-03T10:29:44.274Z,1.20
2018-07-03T10:30:44.249Z,1.30
2018-07-03T10:31:44.220Z,1.40
2018-07-03T10:32:44.200Z,1.30
2018-07-03T10:33:44.162Z,1.40
2018-07-03T10:34:44.135Z,1.40
2018-07-03T10:35:44.109Z,1.20
2018-07-03T10:36:44.094Z,1.40
2018-07-03T10:37:44.054Z,1.40
2018-07-03T10:38:44.020Z,1.20
2018-07-03T10:39:44.021Z,1.80
2018-07-03T10:40:43.965Z,1.70
2018-07-03T10:41:43.933Z,1.30
2018-07-03T10:42:43.909Z,1.20
2018-07-03T10:43:43.882Z,1.60
2018-07-03T10:44:43.860Z,1.30
2018-07-03T10:45:43.831Z,1.40
2018-07-03T10:46:43.802Z,1.20
2018-07-03T10:47:43.773Z,1.10
2018-07-03T10:48:43.753Z,1.10
2018-07-03T10:49:43.743Z,1.20
2018-07-03T10:50:43.700Z,1.40
2018-07-03T10:51:43.662Z,1.20
2018-07-03T10:52:43.640Z,1.30
2018-07-03T10:53:43.605Z,1.30
2018-07-03T10:54:43.595Z,1.20
2018-07-03T10:55:43.556Z,1.20
2018-07-03T10:56:43.529Z,1.30
2018-07-03T10:57:43.530Z,1.30
2018-07-03T10:58:43.476Z,1.50
2018-07-03T10:59:43.445Z,1.60
2018-07-03T11:00:43.416Z,1.30
2018-07-03T11:01:43.394Z,1.10
2018-07-03T11:02:43.366Z,1.50
2018-07-03T11:03:43.348Z,1.20
2018-07-03T11:04:43.314Z,1.40
2018-07-03T11:05:43.283Z,1.20
2018-07-03T11:06:43.270Z,2.00
2018-07-03T11:07:43.235Z,1.40
2018-07-03T11:08:43.205Z,1.30
2018-07-03T11:09:43.185Z,1.30
2018-07-03T11:10:43.148Z,1.40
2018-07-03T11:11:43.158Z,1.50
2018-07-03T11:12:43.095Z,1.30
2018-07-03T11:13:43.114Z,1.20
2018-07-03T11:14:43.044Z,1.20
2018-07-03T11:15:43.017Z,1.20
2018-07-03T11:16:42.999Z,1.30
2018-07-03T11:17:42.976Z,1.40
2018-07-03T11:18:42.940Z,1.20
2018-07-03T11:19:42.999Z,1.20
2018-07-03T11:20:42.902Z,1.30
2018-07-03T11:21:42.867Z,1.20
2018-07-03T11:22:42.831Z,1.20
2018-07-03T11:23:42.801Z,1.40
2018-07-03T11:24:42.779Z,1.30
2018-07-03T11:25:42.750Z,1.20
2018-07-03T11:26:42.720Z,1.20
2018-07-03T11:27:42.701Z,1.40
2018-07-03T11:28:42.670Z,1.30
2018-07-03T11:29:42.669Z,1.40
2018-07-03T11:30:42.621Z,1.00
2018-07-03T11:31:42.596Z,1.30
2018-07-03T11:32:42.561Z,1.30
2018-07-03T11:33:42.537Z,1.10
2018-07-03T11:34:42.506Z,1.50
2018-07-03T11:35:42.481Z,1.20
2018-07-03T11:36:42.458Z,1.30
2018-07-03T11:37:42.478Z,1.50
2018-07-03T11:38:42.400Z,1.30
2018-07-03T11:39:42.381Z,1.50
2018-07-03T11:40:42.350Z,1.30
2018-07-03T11:41:42.332Z,1.20
2018-07-03T11:42:42.312Z,1.30
2018-07-03T11:43:42.267Z,1.20
2018-07-03T11:44:42.310Z,1.20
2018-07-03T11:45:42.231Z,1.30
2018-07-03T11:46:42.188Z,1.30
2018-07-03T11:47:42.169Z,1.30
2018-07-03T11:48:42.137Z,1.20
2018-07-03T11:49:42.111Z,1.10
2018-07-03T11:50:42.113Z,1.10
2018-07-03T11:51:42.057Z,1.50
2018-07-03T11:52:42.028Z,1.20
2018-07-03T11:53:42.035Z,1.20
2018-07-03T11:54:41.977Z,1.20
2018-07-03T11:55:41.948Z,1.30
2018-07-03T11:56:41.925Z,1.20
2018-07-03T11:57:41.890Z,1.50
2018-07-03T11:58:41.879Z,1.40
2018-07-03T11:59:41.873Z,1.30
2018-07-03T12:00:41.819Z,1.30
2018-07-03T12:01:41.826Z,1.30
2018-07-03T12:02:41.770Z,1.40
2018-07-03T12:03:41.744Z,1.30
2018-07-03T12:04:41.718Z,1.30
2018-07-03T12:05:41.686Z,1.30
2018-07-03T12:06:41.656Z,1.30
2018-07-03T12:07:41.639Z,1.50
2018-07-03T12:08:41.615Z,1.30
2018-07-03T12:09:41.574Z,1.10
2018-07-03T12:10:41.554Z,1.50
2018-07-03T12:11:41.525Z,1.30
2018-07-03T12:12:41.506Z,1.40
2018-07-03T12:13:41.482Z,1.20
2018-07-03T12:14:41.448Z,1.20
2018-07-03T12:15:41.417Z,1.30
2018-07-03T12:16:41.399Z,1.20
2018-07-03T12:17:41.363Z,1.60
2018-07-03T12:18:41.355Z,1.50
2018-07-03T12:19:41.395Z,1.40
2018-07-03T12:20:41.297Z,1.40
2018-07-03T12:21:41.263Z,1.40
2018-07-03T12:22:41.238Z,1.20
2018-07-03T12:23:41.207Z,1.20
2018-07-03T12:24:41.180Z,1.30
2018-07-03T12:25:41.159Z,1.30
2018-07-03T12:26:41.140Z,1.40
2018-07-03T12:27:41.100Z,1.10
2018-07-03T12:28:41.074Z,1.40
2018-07-03T12:29:41.086Z,1.30
2018-07-03T12:30:41.035Z,1.20
2018-07-03T12:31:41.002Z,1.40
2018-07-03T12:32:41.002Z,1.30
2018-07-03T12:33:40.952Z,1.30
2018-07-03T12:34:40.921Z,1.30
2018-07-03T12:35:40.894Z,1.40
2018-07-03T12:36:40.933Z,1.50
2018-07-03T12:37:40.839Z,1.60
2018-07-03T12:38:40.813Z,1.40
2018-07-03T12:39:40.794Z,1.50
2018-07-03T12:40:40.771Z,1.30
2018-07-03T12:41:40.746Z,1.20
2018-07-03T12:42:40.711Z,1.30
2018-07-03T12:43:40.690Z,1.30
2018-07-03T12:44:40.665Z,1.10
2018-07-03T12:45:40.640Z,1.10
2018-07-03T12:46:40.606Z,1.40
2018-07-03T12:47:40.580Z,1.60
2018-07-03T12:48:40.579Z,1.50
2018-07-03T12:49:40.570Z,1.40
2018-07-03T12:50:40.502Z,1.30
2018-07-03T12:51:40.475Z,1.30
2018-07-03T12:52:40.458Z,1.40
2018-07-03T12:53:40.425Z,1.40
2018-07-03T12:54:40.400Z,1.30
2018-07-03T12:55:40.368Z,1.50
2018-07-03T12:56:40.340Z,1.40
2018-07-03T12:57:40.325Z,1.30
2018-07-03T12:58:40.291Z,1.30
2018-07-03T12:59:40.283Z,1.50
2018-07-03T13:00:40.249Z,1.30
2018-07-03T13:01:40.211Z,1.40
2018-07-03T13:02:40.187Z,1.40
2018-07-03T13:03:40.160Z,1.10
2018-07-03T13:04:40.147Z,1.30
2018-07-03T13:05:40.116Z,1.80
2018-07-03T13:06:40.083Z,1.50
2018-07-03T13:07:40.059Z,1.40
2018-07-03T13:08:40.041Z,1.70
2018-07-03T13:09:40.002Z,1.40
2018-07-03T13:10:40.066Z,1.50
2018-07-03T13:11:39.962Z,1.60
2018-07-03T13:12:39.938Z,1.30
2018-07-03T13:13:39.902Z,1.40
2018-07-03T13:14:39.906Z,1.50
2018-07-03T13:15:39.899Z,1.70
2018-07-03T13:16:39.823Z,1.90
2018-07-03T13:17:39.799Z,1.60
2018-07-03T13:18:39.771Z,1.60
2018-07-03T13:19:39.741Z,1.50
2018-07-03T13:20:39.713Z,1.50
2018-07-03T13:21:39.688Z,1.70
2018-07-03T13:22:39.662Z,1.70
2018-07-03T13:23:39.654Z,1.70
2018-07-03T13:24:39.623Z,1.50
2018-07-03T13:25:39.590Z,1.50
2018-07-03T13:26:39.593Z,1.40
2018-07-03T13:27:39.532Z,1.50
2018-07-03T13:28:39.506Z,1.40
2018-07-03T13:29:39.486Z,1.50
2018-07-03T13:30:39.464Z,1.20
2018-07-03T13:31:39.447Z,1.40
2018-07-03T13:32:39.428Z,1.40
2018-07-03T13:33:39.397Z,1.30
2018-07-03T13:34:39.365Z,1.30
2018-07-03T13:35:39.327Z,1.30
2018-07-03T13:36:39.323Z,1.60
2018-07-03T13:37:39.272Z,1.30
2018-07-03T13:38:39.261Z,1.30
2018-07-03T13:39:39.244Z,1.40
2018-07-03T13:40:39.194Z,1.60
2018-07-03T13:41:39.184Z,1.20
2018-07-03T13:42:39.141Z,1.80
2018-07-03T13:43:39.129Z,1.40
2018-07-03T13:44:39.095Z,1.60
2018-07-03T13:45:39.069Z,1.50
2018-07-03T13:46:39.037Z,1.80
2018-07-03T13:47:39.033Z,1.40
2018-07-03T13:48:38.988Z,1.40
2018-07-03T13:49:38.962Z,1.40